createdAt,value
2022-08-16T00:01:41.777Z,17.46
2022-08-16T00:04:09.670Z,17.43
2022-08-16T00:06:39.450Z,17.42
2022-08-16T00:09:07.374Z,17.41
2022-08-16T00:11:39.480Z,17.39
2022-08-16T00:14:10.586Z,17.21
2022-08-16T00:17:01.026Z,17.35
2022-08-16T00:19:41.293Z,17.33
2022-08-16T00:22:12.994Z,17.33
2022-08-16T00:24:40.892Z,17.33
2022-08-16T00:27:12.224Z,17.31
2022-08-16T00:29:39.198Z,17.28
2022-08-16T00:32:07.778Z,17.24
2022-08-16T00:34:43.569Z,17.22
2022-08-16T00:37:24.346Z,17.18
2022-08-16T00:39:57.432Z,17.21
2022-08-16T00:42:32.178Z,17.20
2022-08-16T00:45:25.091Z,17.19
2022-08-16T00:47:53.619Z,17.20
2022-08-16T00:50:36.235Z,17.19
2022-08-16T00:53:10.007Z,17.18
2022-08-16T00:55:41.448Z,17.13
2022-08-16T00:58:13.087Z,17.13
2022-08-16T01:00:45.600Z,17.11
2022-08-16T01:03:29.473Z,17.09
2022-08-16T01:05:57.629Z,17.09
2022-08-16T01:08:35.153Z,17.08
2022-08-16T01:11:04.886Z,17.08
2022-08-16T01:13:37.535Z,17.07
2022-08-16T01:16:20.915Z,17.01
2022-08-16T01:19:17.122Z,17.03
2022-08-16T01:22:42.743Z,17.03
2022-08-16T01:25:02.514Z,17.00
2022-08-16T01:27:34.471Z,16.99
2022-08-16T01:30:20.058Z,16.97
2022-08-16T01:32:59.573Z,16.95
2022-08-16T01:35:36.200Z,16.94
2022-08-16T01:38:19.984Z,16.94
2022-08-16T01:40:52.720Z,16.92
2022-08-16T01:43:23.830Z,16.91
2022-08-16T01:46:00.553Z,16.89
2022-08-16T01:48:48.484Z,16.87
2022-08-16T01:51:18.109Z,16.86
2022-08-16T01:53:54.593Z,16.84
2022-08-16T01:56:33.148Z,16.80
2022-08-16T01:59:05.667Z,16.78
2022-08-16T02:01:34.023Z,16.73
2022-08-16T02:04:10.902Z,16.69
2022-08-16T02:06:46.585Z,16.67
2022-08-16T02:09:18.034Z,16.65
2022-08-16T02:11:53.539Z,16.63
2022-08-16T02:14:26.476Z,16.65
2022-08-16T02:17:04.692Z,16.64
2022-08-16T02:19:59.729Z,16.64
2022-08-16T02:22:33.299Z,16.53
2022-08-16T02:25:10.103Z,16.63
2022-08-16T02:27:40.935Z,16.61
2022-08-16T02:30:36.604Z,16.59
2022-08-16T02:33:03.272Z,16.58
2022-08-16T02:35:32.356Z,16.57
2022-08-16T02:38:01.779Z,16.55
2022-08-16T02:40:36.833Z,16.53
2022-08-16T02:43:04.743Z,16.54
2022-08-16T02:45:32.459Z,16.53
2022-08-16T02:48:01.386Z,16.53
2022-08-16T02:51:04.102Z,16.55
2022-08-16T02:53:36.065Z,16.54
2022-08-16T02:56:05.380Z,16.55
2022-08-16T02:58:37.850Z,16.54
2022-08-16T03:01:07.157Z,16.55
2022-08-16T03:04:39.205Z,16.48
2022-08-16T03:06:42.393Z,16.57
2022-08-16T03:09:36.610Z,16.59
2022-08-16T03:12:04.992Z,16.59
2022-08-16T03:14:34.377Z,16.58
2022-08-16T03:17:03.915Z,16.56
2022-08-16T03:19:47.024Z,16.58
2022-08-16T03:22:19.425Z,16.56
2022-08-16T03:25:01.243Z,16.35
2022-08-16T03:27:33.816Z,16.55
2022-08-16T03:30:16.362Z,16.54
2022-08-16T03:32:47.228Z,16.55
2022-08-16T03:35:17.618Z,16.56
2022-08-16T03:38:01.493Z,16.57
2022-08-16T03:40:34.476Z,16.54
2022-08-16T03:43:20.366Z,16.58
2022-08-16T03:45:53.405Z,16.41
2022-08-16T03:48:36.101Z,16.58
2022-08-16T03:51:12.500Z,16.59
2022-08-16T03:54:01.377Z,16.54
2022-08-16T03:56:31.665Z,16.58
2022-08-16T03:59:00.864Z,16.56
2022-08-16T04:01:34.413Z,16.58
2022-08-16T04:04:01.909Z,16.58
2022-08-16T04:06:29.986Z,16.59
2022-08-16T04:08:57.397Z,16.53
2022-08-16T04:11:24.969Z,16.59
2022-08-16T04:13:58.947Z,16.61
2022-08-16T04:16:29.236Z,16.62
2022-08-16T04:19:05.065Z,16.62
2022-08-16T04:21:35.313Z,16.54
2022-08-16T04:24:03.571Z,16.52
2022-08-16T04:26:35.689Z,16.52
2022-08-16T04:29:16.689Z,16.70
2022-08-16T04:31:56.615Z,16.71
2022-08-16T04:34:30.772Z,16.74
2022-08-16T04:37:01.567Z,16.77
2022-08-16T04:39:45.818Z,16.78
2022-08-16T04:42:26.528Z,16.82
2022-08-16T04:45:17.704Z,16.81
2022-08-16T04:48:06.603Z,16.80
2022-08-16T04:51:02.097Z,16.92
2022-08-16T04:53:43.612Z,16.96
2022-08-16T04:56:11.302Z,16.99
2022-08-16T04:58:46.141Z,17.02
2022-08-16T05:01:17.944Z,17.07
2022-08-16T05:03:59.959Z,16.98
2022-08-16T05:06:44.630Z,17.07
2022-08-16T05:09:29.869Z,17.21
2022-08-16T05:11:58.039Z,17.24
2022-08-16T05:14:46.283Z,17.27
2022-08-16T05:17:20.522Z,17.35
2022-08-16T05:19:57.380Z,17.41
2022-08-16T05:22:33.005Z,17.47
2022-08-16T05:25:08.902Z,17.52
2022-08-16T05:27:42.912Z,17.56
2022-08-16T05:30:34.852Z,17.64
2022-08-16T05:33:01.352Z,17.71
2022-08-16T05:35:28.491Z,17.78
2022-08-16T05:38:33.307Z,17.84
2022-08-16T05:41:00.036Z,17.92
2022-08-16T05:43:43.170Z,17.99
2022-08-16T05:46:29.668Z,18.06
2022-08-16T05:49:16.333Z,18.13
2022-08-16T05:51:51.487Z,18.19
2022-08-16T05:54:25.123Z,18.23
2022-08-16T05:56:57.037Z,18.32
2022-08-16T05:59:45.663Z,18.38
2022-08-16T06:02:15.485Z,18.47
2022-08-16T06:05:05.292Z,18.44
2022-08-16T06:07:58.529Z,18.61
2022-08-16T06:11:02.845Z,18.65
2022-08-16T06:13:58.571Z,18.75
2022-08-16T06:17:11.906Z,18.83
2022-08-16T06:20:03.448Z,18.91
2022-08-16T06:22:57.556Z,18.98
2022-08-16T06:25:55.801Z,19.05
2022-08-16T06:28:47.550Z,19.13
2022-08-16T06:31:46.597Z,19.06
2022-08-16T06:34:55.969Z,19.24
2022-08-16T06:37:48.585Z,19.38
2022-08-16T06:40:38.745Z,19.47
2022-08-16T06:43:36.329Z,19.57
2022-08-16T06:46:31.641Z,19.65
2022-08-16T06:49:25.271Z,19.74
2022-08-16T06:52:58.071Z,19.80
2022-08-16T06:55:20.520Z,19.96
2022-08-16T06:58:21.678Z,19.94
2022-08-16T07:01:20.163Z,20.13
2022-08-16T07:04:12.218Z,20.22
2022-08-16T07:07:03.587Z,20.31
2022-08-16T07:09:51.359Z,20.38
2022-08-16T07:12:47.461Z,20.45
2022-08-16T07:15:50.796Z,20.44
2022-08-16T07:19:00.933Z,20.59
2022-08-16T07:21:59.972Z,20.66
2022-08-16T07:24:49.463Z,20.74
2022-08-16T07:27:37.491Z,20.83
2022-08-16T07:30:39.071Z,20.89
2022-08-16T07:33:51.710Z,21.01
2022-08-16T07:36:42.100Z,21.10
2022-08-16T07:39:34.312Z,21.23
2022-08-16T07:42:28.327Z,21.32
2022-08-16T07:45:22.925Z,21.29
2022-08-16T07:48:12.972Z,21.52
2022-08-16T07:51:09.236Z,21.54
2022-08-16T07:54:09.727Z,21.71
2022-08-16T07:57:01.018Z,21.82
2022-08-16T07:59:49.593Z,21.93
2022-08-16T08:02:38.545Z,22.02
2022-08-16T08:05:35.945Z,22.13
2022-08-16T08:08:51.812Z,22.21
2022-08-16T08:11:31.961Z,22.31
2022-08-16T08:14:30.098Z,22.38
2022-08-16T08:17:19.544Z,22.41
2022-08-16T08:20:06.887Z,22.31
2022-08-16T08:23:00.088Z,22.54
2022-08-16T08:25:55.705Z,22.57
2022-08-16T08:28:47.581Z,22.60
2022-08-16T08:31:17.794Z,22.64
2022-08-16T08:33:47.476Z,22.67
2022-08-16T08:36:33.148Z,22.70
2022-08-16T08:39:12.582Z,22.74
2022-08-16T08:41:42.718Z,22.76
2022-08-16T08:44:28.714Z,22.82
2022-08-16T08:47:09.467Z,22.86
2022-08-16T08:49:50.501Z,22.91
2022-08-16T08:52:35.218Z,22.96
2022-08-16T08:55:10.335Z,22.97
2022-08-16T08:57:45.665Z,23.08
2022-08-16T09:00:26.879Z,23.13
2022-08-16T09:02:58.924Z,23.17
2022-08-16T09:05:35.556Z,23.20
2022-08-16T09:08:06.070Z,23.23
2022-08-16T09:11:07.472Z,23.19
2022-08-16T09:13:37.523Z,23.30
2022-08-16T09:17:00.817Z,23.35
2022-08-16T09:19:04.332Z,23.40
2022-08-16T09:21:56.139Z,23.45
2022-08-16T09:24:51.366Z,23.46
2022-08-16T09:27:56.821Z,23.56
2022-08-16T09:30:46.352Z,23.62
2022-08-16T09:33:39.806Z,23.70
2022-08-16T09:36:31.925Z,23.79
2022-08-16T09:39:20.374Z,23.88
2022-08-16T09:42:10.624Z,24.01
2022-08-16T09:45:11.272Z,24.18
2022-08-16T09:47:25.049Z,24.36
2022-08-16T09:49:53.509Z,24.49
2022-08-16T09:52:22.385Z,24.66
2022-08-16T09:54:49.781Z,24.76
2022-08-16T09:57:17.821Z,24.89
2022-08-16T09:59:44.703Z,24.96
2022-08-16T10:02:25.883Z,25.14
2022-08-16T10:04:55.055Z,25.26
2022-08-16T10:07:23.330Z,25.36
2022-08-16T10:09:54.900Z,25.48
2022-08-16T10:12:46.420Z,25.55
2022-08-16T10:15:22.373Z,25.70
2022-08-16T10:17:59.515Z,25.64
2022-08-16T10:20:31.659Z,25.81
2022-08-16T10:23:05.876Z,26.01
2022-08-16T10:27:20.521Z,26.04
2022-08-16T10:28:31.890Z,26.12
2022-08-16T10:31:03.619Z,26.16
2022-08-16T10:33:34.275Z,26.22
2022-08-16T10:36:07.645Z,26.29
2022-08-16T10:38:38.150Z,26.35
2022-08-16T10:41:10.400Z,26.43
2022-08-16T10:43:43.710Z,26.50
2022-08-16T10:46:39.322Z,26.56
2022-08-16T10:49:01.087Z,26.66
2022-08-16T10:51:34.450Z,26.71
2022-08-16T10:54:29.692Z,26.74
2022-08-16T10:57:04.227Z,26.73
2022-08-16T10:59:46.946Z,26.73
2022-08-16T11:02:59.375Z,26.79
2022-08-16T11:05:11.823Z,26.85
2022-08-16T11:07:43.310Z,26.89
2022-08-16T11:11:06.737Z,26.77
2022-08-16T11:15:55.943Z,27.02
2022-08-16T11:18:48.774Z,27.13
2022-08-16T11:21:33.736Z,27.21
2022-08-16T11:24:39.614Z,27.32
2022-08-16T11:27:35.374Z,27.43
2022-08-16T11:30:37.821Z,27.52
2022-08-16T11:36:34.570Z,27.75
2022-08-16T11:39:21.854Z,27.82
2022-08-16T11:42:28.137Z,27.85
2022-08-16T11:45:15.730Z,27.92
2022-08-16T11:48:02.801Z,28.01
2022-08-16T11:50:50.312Z,28.08
2022-08-16T11:53:37.317Z,28.14
2022-08-16T11:56:39.765Z,28.21
2022-08-16T11:59:32.814Z,28.33
2022-08-16T12:02:31.981Z,28.31
2022-08-16T12:05:19.999Z,28.43
2022-08-16T12:08:07.292Z,28.46
2022-08-16T12:10:59.365Z,28.43
2022-08-16T12:13:47.291Z,28.39
2022-08-16T12:16:35.244Z,28.43
2022-08-16T12:19:33.895Z,28.44
2022-08-16T12:22:21.586Z,28.40
2022-08-16T12:25:09.545Z,28.42
2022-08-16T12:27:56.865Z,28.40
2022-08-16T12:30:36.252Z,28.42
2022-08-16T12:33:08.572Z,28.20
2022-08-16T12:35:38.341Z,28.33
2022-08-16T12:38:08.885Z,28.35
2022-08-16T12:40:57.148Z,28.34
2022-08-16T12:43:25.606Z,28.37
2022-08-16T12:45:55.375Z,28.36
2022-08-16T12:48:44.577Z,28.37
2022-08-16T12:51:23.798Z,28.42
2022-08-16T12:53:53.168Z,28.42
2022-08-16T12:56:42.428Z,28.46
2022-08-16T12:59:31.518Z,28.43
2022-08-16T13:02:22.810Z,28.52
2022-08-16T13:05:20.492Z,28.43
2022-08-16T13:08:09.135Z,28.29
2022-08-16T13:11:09.388Z,28.13
2022-08-16T13:13:56.429Z,28.05
2022-08-16T13:16:43.398Z,28.00
2022-08-16T13:19:49.817Z,27.98
2022-08-16T13:25:29.597Z,27.94
2022-08-16T13:28:18.262Z,27.87
2022-08-16T13:31:12.362Z,27.81
2022-08-16T13:34:09.473Z,27.70
2022-08-16T13:36:56.991Z,27.55
2022-08-16T13:39:45.089Z,27.49
2022-08-16T13:42:33.324Z,27.44
2022-08-16T13:45:29.453Z,27.44
2022-08-16T13:48:25.962Z,27.43
2022-08-16T13:51:17.492Z,27.41
2022-08-16T13:54:09.573Z,27.38
2022-08-16T13:56:57.549Z,27.33
2022-08-16T13:59:24.648Z,27.21
2022-08-16T14:02:02.815Z,27.20
2022-08-16T14:04:34.100Z,27.13
2022-08-16T14:07:04.408Z,27.07
2022-08-16T14:09:33.709Z,27.03
2022-08-16T14:12:04.413Z,27.01
2022-08-16T14:14:36.849Z,26.98
2022-08-16T14:17:04.891Z,26.95
2022-08-16T14:19:36.751Z,26.92
2022-08-16T14:22:30.851Z,26.90
2022-08-16T14:25:03.069Z,26.89
2022-08-16T14:27:30.975Z,26.85
2022-08-16T14:29:59.414Z,26.80
2022-08-16T14:32:34.005Z,26.77
2022-08-16T14:35:10.477Z,26.72
2022-08-16T14:37:38.936Z,26.69
2022-08-16T14:40:09.410Z,26.66
2022-08-16T14:42:36.958Z,26.59
2022-08-16T14:45:06.323Z,26.54
2022-08-16T14:47:37.257Z,26.53
2022-08-16T14:50:09.190Z,26.44
2022-08-16T14:52:58.786Z,26.53
2022-08-16T14:55:28.014Z,26.44
2022-08-16T14:57:55.690Z,26.59
2022-08-16T15:00:32.957Z,26.63
2022-08-16T15:03:04.496Z,26.65
2022-08-16T15:08:04.135Z,26.64
2022-08-16T15:10:32.480Z,26.66
2022-08-16T15:13:01.260Z,26.69
2022-08-16T15:15:30.057Z,26.69
2022-08-16T15:17:57.569Z,26.68
2022-08-16T15:20:29.951Z,26.74
2022-08-16T15:23:00.646Z,26.78
2022-08-16T15:25:33.977Z,26.77
2022-08-16T15:28:04.659Z,26.73
2022-08-16T15:30:59.939Z,26.77
2022-08-16T15:33:25.524Z,26.79
2022-08-16T15:35:55.475Z,26.79
2022-08-16T15:38:57.353Z,26.80
2022-08-16T15:41:49.529Z,26.81
2022-08-16T15:44:22.347Z,26.86
2022-08-16T15:46:56.406Z,26.90
2022-08-16T15:49:34.894Z,26.90
2022-08-16T15:52:15.795Z,26.92
2022-08-16T15:54:53.596Z,26.93
2022-08-16T15:57:24.649Z,26.97
2022-08-16T15:59:56.405Z,26.99
2022-08-16T16:02:38.616Z,27.03
2022-08-16T16:05:09.816Z,26.97
2022-08-16T16:07:40.786Z,27.08
2022-08-16T16:10:13.347Z,27.09
2022-08-16T16:12:51.528Z,27.09
2022-08-16T16:15:25.391Z,27.10
2022-08-16T16:17:53.715Z,27.08
2022-08-16T16:20:24.389Z,27.07
2022-08-16T16:22:56.693Z,27.04
2022-08-16T16:25:25.075Z,27.01
2022-08-16T16:27:55.721Z,26.94
2022-08-16T16:30:33.213Z,26.89
2022-08-16T16:33:20.507Z,26.83
2022-08-16T16:35:55.450Z,26.80
2022-08-16T16:38:28.906Z,26.84
2022-08-16T16:40:58.546Z,26.77
2022-08-16T16:43:31.833Z,26.84
2022-08-16T16:46:01.696Z,26.68
2022-08-16T16:48:35.051Z,26.76
2022-08-16T16:51:09.450Z,26.73
2022-08-16T16:53:42.982Z,26.68
2022-08-16T16:56:20.012Z,26.74
2022-08-16T16:58:57.073Z,26.74
2022-08-16T17:01:41.441Z,26.74
2022-08-16T17:04:19.805Z,26.72
2022-08-16T17:06:53.586Z,26.69
2022-08-16T17:09:24.607Z,26.71
2022-08-16T17:11:55.120Z,26.72
2022-08-16T17:14:33.860Z,26.67
2022-08-16T17:17:13.298Z,26.68
2022-08-16T17:19:41.506Z,26.65
2022-08-16T17:22:15.526Z,26.59
2022-08-16T17:24:45.596Z,26.56
2022-08-16T17:27:32.373Z,26.52
2022-08-16T17:30:17.370Z,26.44
2022-08-16T17:35:39.237Z,26.18
2022-08-16T17:38:11.134Z,26.31
2022-08-16T17:39:27.125Z,26.30
2022-08-16T17:40:49.441Z,26.16
2022-08-16T17:43:36.956Z,26.21
2022-08-16T17:46:41.388Z,26.16
2022-08-16T17:48:59.453Z,26.08
2022-08-16T17:51:28.589Z,26.00
2022-08-16T17:53:56.697Z,25.95
2022-08-16T17:56:23.988Z,25.90
2022-08-16T17:58:51.048Z,25.83
2022-08-16T18:01:23.923Z,25.72
2022-08-16T18:04:07.410Z,25.73
2022-08-16T18:06:36.793Z,25.69
2022-08-16T18:09:04.274Z,25.59
2022-08-16T18:11:34.000Z,25.40
2022-08-16T18:14:01.214Z,25.56
2022-08-16T18:16:28.383Z,25.52
2022-08-16T18:18:55.370Z,25.48
2022-08-16T18:21:41.860Z,25.48
2022-08-16T18:24:10.512Z,25.41
2022-08-16T18:26:38.590Z,25.34
2022-08-16T18:29:06.744Z,25.26
2022-08-16T18:31:34.274Z,25.22
2022-08-16T18:34:01.485Z,25.17
2022-08-16T18:36:29.061Z,25.12
2022-08-16T18:38:56.170Z,25.08
2022-08-16T18:41:26.180Z,25.05
2022-08-16T18:44:22.676Z,24.90
2022-08-16T18:46:43.808Z,24.91
2022-08-16T18:49:14.108Z,24.85
2022-08-16T18:51:46.337Z,24.82
2022-08-16T18:54:18.474Z,24.73
2022-08-16T18:56:55.519Z,24.73
2022-08-16T18:59:28.476Z,24.69
2022-08-16T19:02:00.131Z,24.63
2022-08-16T19:04:47.759Z,24.60
2022-08-16T19:07:19.930Z,24.58
2022-08-16T19:09:47.085Z,24.56
2022-08-16T19:12:16.140Z,24.40
2022-08-16T19:14:45.583Z,24.50
2022-08-16T19:17:12.901Z,24.47
2022-08-16T19:19:39.873Z,24.43
2022-08-16T19:22:06.917Z,24.39
2022-08-16T19:24:54.062Z,24.34
2022-08-16T19:27:44.450Z,24.29
2022-08-16T19:30:31.926Z,24.25
2022-08-16T19:33:18.869Z,24.21
2022-08-16T19:36:05.946Z,24.16
2022-08-16T19:38:53.025Z,24.12
2022-08-16T19:41:41.239Z,24.04
2022-08-16T19:44:28.649Z,23.97
2022-08-16T19:47:15.612Z,23.89
2022-08-16T19:50:02.684Z,23.82
2022-08-16T19:52:51.159Z,23.78
2022-08-16T19:55:38.187Z,23.73
2022-08-16T19:58:26.399Z,23.54
2022-08-16T20:01:13.373Z,23.60
2022-08-16T20:04:00.475Z,23.54
2022-08-16T20:06:47.511Z,23.50
2022-08-16T20:09:34.434Z,23.46
2022-08-16T20:12:26.901Z,23.40
2022-08-16T20:15:14.224Z,23.34
2022-08-16T20:18:02.756Z,23.31
2022-08-16T20:21:00.689Z,23.16
2022-08-16T20:23:47.644Z,23.18
2022-08-16T20:26:34.660Z,23.18
2022-08-16T20:29:21.846Z,23.15
2022-08-16T20:32:08.909Z,23.11
2022-08-16T20:34:56.101Z,23.08
2022-08-16T20:37:43.182Z,23.01
2022-08-16T20:40:34.487Z,23.02
2022-08-16T20:43:29.918Z,23.00
2022-08-16T20:46:16.883Z,22.97
2022-08-16T20:49:04.146Z,22.95
2022-08-16T20:51:59.330Z,22.92
2022-08-16T20:54:49.349Z,22.91
2022-08-16T20:57:36.666Z,22.88
2022-08-16T21:00:26.978Z,22.84
2022-08-16T21:03:13.874Z,22.81
2022-08-16T21:06:01.685Z,22.67
2022-08-16T21:08:52.009Z,22.73
2022-08-16T21:11:41.317Z,22.71
2022-08-16T21:14:28.234Z,22.66
2022-08-16T21:17:15.705Z,22.67
2022-08-16T21:20:03.344Z,22.50
2022-08-16T21:22:50.486Z,22.64
2022-08-16T21:25:52.749Z,22.62
2022-08-16T21:28:46.453Z,22.59
2022-08-16T21:31:35.369Z,22.55
2022-08-16T21:34:22.328Z,22.55
2022-08-16T21:37:09.361Z,22.52
2022-08-16T21:39:56.409Z,22.50
2022-08-16T21:42:43.378Z,22.49
2022-08-16T21:45:33.913Z,22.46
2022-08-16T21:48:35.195Z,22.45
2022-08-16T21:51:32.077Z,22.36
2022-08-16T21:54:19.086Z,22.41
2022-08-16T21:57:10.585Z,22.40
2022-08-16T21:59:58.061Z,22.39
2022-08-16T22:02:51.368Z,22.28
2022-08-16T22:05:38.488Z,22.38
2022-08-16T22:08:25.870Z,22.38
2022-08-16T22:11:12.712Z,22.37
2022-08-16T22:13:59.776Z,22.35
2022-08-16T22:16:49.706Z,22.35
2022-08-16T22:19:36.794Z,22.34
2022-08-16T22:22:24.102Z,22.34
2022-08-16T22:25:24.110Z,22.32
2022-08-16T22:28:11.105Z,22.31
2022-08-16T22:30:58.285Z,22.30
2022-08-16T22:33:47.929Z,22.28
2022-08-16T22:36:34.841Z,22.26
2022-08-16T22:39:26.086Z,22.23
2022-08-16T22:42:13.153Z,22.23
2022-08-16T22:45:00.224Z,22.24
2022-08-16T22:47:47.252Z,22.22
2022-08-16T22:50:34.781Z,22.21
2022-08-16T22:53:22.782Z,22.19
2022-08-16T22:56:09.835Z,22.18
2022-08-16T22:58:57.431Z,22.18
2022-08-16T23:01:46.271Z,22.17
2022-08-16T23:04:33.186Z,22.16
2022-08-16T23:07:20.182Z,22.15
2022-08-16T23:10:07.249Z,22.15
2022-08-16T23:13:07.220Z,22.08
2022-08-16T23:16:11.110Z,22.14
2022-08-16T23:19:00.261Z,22.14
2022-08-16T23:21:47.134Z,22.11
2022-08-16T23:24:36.963Z,22.13
2022-08-16T23:27:27.866Z,22.13
2022-08-16T23:30:14.727Z,22.07
2022-08-16T23:33:07.746Z,22.07
2022-08-16T23:35:57.655Z,22.09
2022-08-16T23:38:47.413Z,22.08
2022-08-16T23:41:34.736Z,22.04
2022-08-16T23:44:57.309Z,22.04
2022-08-16T23:47:29.132Z,22.03
2022-08-16T23:50:03.170Z,22.01
2022-08-16T23:52:48.814Z,22.01
2022-08-16T23:55:18.220Z,21.94
2022-08-16T23:57:46.291Z,21.98
